Union Grove, North Carolina
Current Conditions -  °F | °C
As of 8:15 PM on Sunday 23 Nov 2014 (Local Time) from KUKF Reporting Station
Moderate Rain Moderate Rain  
Wind Chill: 42°   Ceiling: 300
Heat Index: 45°   Visibility: 4mi
Dew Point: 45°   Wind: 5mph
Humidity: 100%   Direction: 70°ENE
Pressure: 29.82"   Gusts: NA
Location:  36.03°N, 80.87°W
Report Text: KUKF 240115Z AUTO 07004KT 4SM RA OVC003 07/07 A2982 RMK AO2 LTG DSNT S P0004
Loading
Personal Weather Stations






























Interactive Weather Map New forecast layout! Learn more

10-Day Weather Forecast

Advertisements
Track Severe Weather on mobile